Scarborough, United Kingdom
Current Conditions -  °F | °C
As of 7:50 AM on Saturday 25 Oct 2014 (Local Time) from EGXV Reporting Station
Clear Clear  
Wind Chill: 40°   Ceiling: Unl
Heat Index: 46°   Visibility: 6mi
Dew Point: 45°   Wind: 14mph
Humidity: 93%   Direction: 230°SW
Pressure: 29.88"   Gusts: NA
Location:  54.28°N, 0.4°W
Report Text: EGXV 250650Z AUTO 23012KT 9999 NCD 08/07 Q1012
Loading
Personal Weather Stations






























Interactive Weather Map New forecast layout! Learn more

10-Day Weather Forecast

Advertisements
Track Severe Weather on mobile